createdAt,value
2018-02-15T00:01:54.634Z,97944.31
2018-02-15T00:04:22.912Z,97945.61
2018-02-15T00:06:51.176Z,97941.17
2018-02-15T00:09:20.223Z,97934.50
2018-02-15T00:11:48.484Z,97937.72
2018-02-15T00:14:17.534Z,97936.44
2018-02-15T00:16:45.805Z,97913.98
2018-02-15T00:19:14.099Z,97913.42
2018-02-15T00:21:42.413Z,97908.55
2018-02-15T00:24:10.687Z,97914.87
2018-02-15T00:26:39.225Z,97920.11
2018-02-15T00:29:07.503Z,97927.02
2018-02-15T00:31:35.778Z,97914.13
2018-02-15T00:34:04.053Z,97919.35
2018-02-15T00:36:32.339Z,97909.73
2018-02-15T00:41:43.676Z,97919.48
2018-02-15T00:44:11.997Z,97911.73
2018-02-15T00:46:41.450Z,97912.81
2018-02-15T00:49:09.728Z,97910.18
2018-02-15T00:51:37.986Z,97916.38
2018-02-15T00:54:06.268Z,97910.28
2018-02-15T00:56:35.306Z,97905.68
2018-02-15T00:59:04.339Z,97911.67
2018-02-15T01:01:32.649Z,97914.89
2018-02-15T01:04:00.998Z,97906.31
2018-02-15T01:06:29.286Z,97918.91
2018-02-15T01:08:58.327Z,97921.51
2018-02-15T01:11:26.599Z,97921.00
2018-02-15T01:13:54.876Z,97926.05
2018-02-15T01:16:23.140Z,97922.33
2018-02-15T01:18:51.419Z,97926.95
2018-02-15T01:21:19.683Z,97926.94
2018-02-15T01:23:47.950Z,97935.83
2018-02-15T01:26:16.439Z,97932.25
2018-02-15T01:28:44.735Z,97922.28
2018-02-15T01:31:13.108Z,97914.61
2018-02-15T01:33:42.207Z,97918.51
2018-02-15T01:36:11.357Z,97910.32
2018-02-15T01:38:39.628Z,97914.75
2018-02-15T01:41:07.900Z,97912.84
2018-02-15T01:43:36.918Z,97918.77
2018-02-15T01:46:05.173Z,97923.20
2018-02-15T01:48:33.450Z,97926.55
2018-02-15T01:51:01.759Z,97919.44
2018-02-15T01:53:29.998Z,97906.56
2018-02-15T01:55:58.275Z,97889.45
2018-02-15T01:58:26.539Z,97874.83
2018-02-15T02:00:55.570Z,97870.41
2018-02-15T02:03:23.852Z,97864.77
2018-02-15T02:05:52.137Z,97871.69
2018-02-15T02:08:20.401Z,97870.68
2018-02-15T02:10:49.463Z,97862.95
2018-02-15T02:13:17.730Z,97874.72
2018-02-15T02:15:46.372Z,97869.92
2018-02-15T02:18:14.651Z,97857.23
2018-02-15T02:20:43.061Z,97860.15
2018-02-15T02:23:13.015Z,97852.91
2018-02-15T02:25:42.097Z,97843.59
2018-02-15T02:28:10.379Z,97852.06
2018-02-15T02:30:38.731Z,97850.20
2018-02-15T02:33:07.048Z,97844.17
2018-02-15T02:35:35.325Z,97833.74
2018-02-15T02:38:03.585Z,97819.66
2018-02-15T02:40:31.948Z,97825.90
2018-02-15T02:43:01.003Z,97824.72
2018-02-15T02:45:29.296Z,97809.73
2018-02-15T02:47:57.580Z,97815.91
2018-02-15T02:50:25.843Z,97813.34
2018-02-15T02:52:54.124Z,97811.05
2018-02-15T02:55:22.408Z,97808.47
2018-02-15T02:57:51.440Z,97809.05
2018-02-15T03:00:19.708Z,97793.59
2018-02-15T03:02:47.982Z,97795.73
2018-02-15T03:05:16.337Z,97797.89
2018-02-15T03:07:44.774Z,97799.73
2018-02-15T03:10:13.838Z,97807.14
2018-02-15T03:12:42.339Z,97802.89
2018-02-15T03:15:10.637Z,97800.34
2018-02-15T03:17:38.939Z,97797.36
2018-02-15T03:20:07.213Z,97789.27
2018-02-15T03:22:35.512Z,97781.66
2018-02-15T03:25:03.768Z,97790.73
2018-02-15T03:27:32.093Z,97783.34
2018-02-15T03:30:00.361Z,97784.97
2018-02-15T03:32:28.629Z,97784.53
2018-02-15T03:34:56.905Z,97784.56
2018-02-15T03:37:25.177Z,97784.69
2018-02-15T03:39:54.198Z,97778.84
2018-02-15T03:42:23.223Z,97776.80
2018-02-15T03:44:51.486Z,97775.86
2018-02-15T03:47:20.521Z,97778.97
2018-02-15T03:49:48.775Z,97776.97
2018-02-15T03:52:17.846Z,97781.22
2018-02-15T03:54:46.130Z,97790.34
2018-02-15T03:57:15.223Z,97773.73
2018-02-15T03:59:43.623Z,97774.76
2018-02-15T04:02:12.206Z,97771.65
2018-02-15T04:04:41.387Z,97779.91
2018-02-15T04:07:10.484Z,97765.19
2018-02-15T04:09:39.504Z,97764.38
2018-02-15T04:12:08.588Z,97771.48
2018-02-15T04:14:36.904Z,97767.72
2018-02-15T04:17:05.937Z,97764.30
2018-02-15T04:19:34.214Z,97763.76
2018-02-15T04:22:02.528Z,97757.30
2018-02-15T04:24:30.876Z,97751.41
2018-02-15T04:26:59.897Z,97752.27
2018-02-15T04:29:28.175Z,97758.69
2018-02-15T04:31:57.208Z,97761.09
2018-02-15T04:34:25.479Z,97768.33
2018-02-15T04:36:53.739Z,97775.74
2018-02-15T04:39:22.791Z,97772.55
2018-02-15T04:41:51.073Z,97786.37
2018-02-15T04:44:19.338Z,97789.88
2018-02-15T04:46:48.340Z,97798.11
2018-02-15T04:49:17.389Z,97800.72
2018-02-15T04:51:45.928Z,97802.16
2018-02-15T04:54:14.228Z,97799.16
2018-02-15T04:56:43.378Z,97805.18
2018-02-15T04:59:11.781Z,97801.82
2018-02-15T05:01:40.137Z,97799.38
2018-02-15T05:04:09.215Z,97799.91
2018-02-15T05:06:38.293Z,97803.34
2018-02-15T05:09:06.584Z,97787.80
2018-02-15T05:11:34.849Z,97795.81
2018-02-15T05:14:03.143Z,97796.63
2018-02-15T05:16:31.404Z,97794.70
2018-02-15T05:18:59.697Z,97782.27
2018-02-15T05:21:28.714Z,97789.42
2018-02-15T05:23:56.985Z,97783.64
2018-02-15T05:26:25.999Z,97778.50
2018-02-15T05:28:55.043Z,97782.63
2018-02-15T05:31:23.306Z,97780.38
2018-02-15T05:33:51.565Z,97781.32
2018-02-15T05:36:19.828Z,97779.61
2018-02-15T05:38:48.080Z,97777.75
2018-02-15T05:41:16.397Z,97773.86
2018-02-15T05:43:44.684Z,97782.82
2018-02-15T05:46:12.996Z,97778.48
2018-02-15T05:48:41.297Z,97787.53
2018-02-15T05:51:09.587Z,97787.16
2018-02-15T05:53:37.831Z,97787.92
2018-02-15T05:56:06.100Z,97781.05
2018-02-15T05:58:34.348Z,97793.38
2018-02-15T06:01:02.623Z,97781.30
2018-02-15T06:03:30.900Z,97788.09
2018-02-15T06:05:59.173Z,97778.97
2018-02-15T06:08:27.445Z,97780.12
2018-02-15T06:10:55.724Z,97786.79
2018-02-15T06:13:23.980Z,97780.31
2018-02-15T06:15:52.267Z,97781.74
2018-02-15T06:18:20.538Z,97782.00
2018-02-15T06:20:49.597Z,97789.44
2018-02-15T06:23:17.851Z,97790.58
2018-02-15T06:25:46.151Z,97794.81
2018-02-15T06:28:15.254Z,97802.94
2018-02-15T06:30:44.344Z,97795.69
2018-02-15T06:33:12.823Z,97805.77
2018-02-15T06:35:42.138Z,97810.62
2018-02-15T06:38:10.482Z,97804.84
2018-02-15T06:40:39.512Z,97809.06
2018-02-15T06:43:07.789Z,97806.81
2018-02-15T06:45:36.110Z,97800.67
2018-02-15T06:48:04.350Z,97799.91
2018-02-15T06:50:33.379Z,97813.55
2018-02-15T06:53:02.309Z,97805.05
2018-02-15T06:55:30.601Z,97809.61
2018-02-15T06:57:58.880Z,97810.75
2018-02-15T07:00:27.152Z,97810.92
2018-02-15T07:02:55.411Z,97803.66
2018-02-15T07:05:24.449Z,97802.30
2018-02-15T07:07:52.748Z,97805.66
2018-02-15T07:10:21.013Z,97815.53
2018-02-15T07:12:50.447Z,97811.11
2018-02-15T07:15:18.772Z,97814.41
2018-02-15T07:17:47.080Z,97800.27
2018-02-15T07:20:15.576Z,97805.19
2018-02-15T07:22:43.870Z,97804.89
2018-02-15T07:25:12.203Z,97808.70
2018-02-15T07:27:42.150Z,97802.20
2018-02-15T07:30:11.221Z,97809.45
2018-02-15T07:32:39.488Z,97807.87
2018-02-15T07:35:07.744Z,97813.05
2018-02-15T07:37:36.784Z,97805.28
2018-02-15T07:40:05.036Z,97809.42
2018-02-15T07:42:33.311Z,97811.28
2018-02-15T07:45:01.551Z,97816.23
2018-02-15T07:47:30.619Z,97818.45
2018-02-15T07:49:58.959Z,97823.85
2018-02-15T07:52:28.014Z,97826.13
2018-02-15T07:54:56.268Z,97821.31
2018-02-15T07:57:24.540Z,97825.77
2018-02-15T07:59:53.561Z,97820.91
2018-02-15T08:02:22.592Z,97823.06
2018-02-15T08:04:50.873Z,97818.13
2018-02-15T08:07:19.140Z,97812.25
2018-02-15T08:09:48.155Z,97802.41
2018-02-15T08:12:16.437Z,97808.55
2018-02-15T08:14:44.883Z,97808.86
2018-02-15T08:17:13.511Z,97811.34
2018-02-15T08:19:42.766Z,97809.62
2018-02-15T08:22:11.290Z,97814.47
2018-02-15T08:24:39.557Z,97813.63
2018-02-15T08:27:07.992Z,97812.10
2018-02-15T08:29:36.853Z,97813.19
2018-02-15T08:32:05.127Z,97815.71
2018-02-15T08:34:33.519Z,97811.00
2018-02-15T08:37:02.617Z,97816.36
2018-02-15T08:39:30.978Z,97813.55
2018-02-15T08:42:00.120Z,97818.12
2018-02-15T08:44:28.698Z,97808.66
2018-02-15T08:46:58.155Z,97815.80
2018-02-15T08:49:26.833Z,97809.75
2018-02-15T08:51:55.224Z,97810.99
2018-02-15T08:54:23.497Z,97808.55
2018-02-15T08:56:53.300Z,97805.31
2018-02-15T08:59:21.701Z,97802.55
2018-02-15T09:01:49.988Z,97806.22
2018-02-15T09:04:19.155Z,97803.08
2018-02-15T09:06:47.535Z,97802.95
2018-02-15T09:09:16.082Z,97804.04
2018-02-15T09:11:44.817Z,97806.60
2018-02-15T09:14:13.912Z,97784.46
2018-02-15T09:16:43.136Z,97777.67
2018-02-15T09:19:11.528Z,97776.57
2018-02-15T09:21:39.803Z,97773.37
2018-02-15T09:24:08.987Z,97773.89
2018-02-15T09:26:37.564Z,97772.52
2018-02-15T09:29:05.907Z,97778.20
2018-02-15T09:31:34.399Z,97773.74
2018-02-15T09:34:02.703Z,97784.88
2018-02-15T09:36:31.128Z,97783.70
2018-02-15T09:38:59.539Z,97796.05
2018-02-15T09:41:28.647Z,97788.95
2018-02-15T09:43:56.943Z,97784.30
2018-02-15T09:46:25.349Z,97777.45
2018-02-15T09:48:54.474Z,97775.83
2018-02-15T09:51:23.923Z,97777.98
2018-02-15T09:53:53.811Z,97794.80
2018-02-15T09:56:22.935Z,97779.05
2018-02-15T09:58:51.379Z,97776.17
2018-02-15T10:01:19.774Z,97776.49
2018-02-15T10:03:48.379Z,97773.11
2018-02-15T10:06:16.899Z,97787.06
2018-02-15T10:08:46.100Z,97778.72
2018-02-15T10:11:15.739Z,97780.45
2018-02-15T10:13:44.129Z,97777.55
2018-02-15T10:16:12.668Z,97772.45
2018-02-15T10:18:41.060Z,97766.70
2018-02-15T10:21:09.943Z,97764.84
2018-02-15T10:23:38.205Z,97758.72
2018-02-15T10:26:06.527Z,97763.42
2018-02-15T10:28:34.789Z,97765.53
2018-02-15T10:31:03.174Z,97765.67
2018-02-15T10:33:32.315Z,97763.90
2018-02-15T10:36:00.692Z,97775.11
2018-02-15T10:38:29.224Z,97770.13
2018-02-15T10:40:57.762Z,97773.77
2018-02-15T10:43:26.878Z,97765.16
2018-02-15T10:45:55.920Z,97766.56
2018-02-15T10:48:24.239Z,97756.94
2018-02-15T10:50:52.816Z,97753.92
2018-02-15T10:53:21.162Z,97745.61
2018-02-15T10:55:50.293Z,97746.17
2018-02-15T10:58:18.574Z,97750.24
2018-02-15T11:00:52.480Z,97756.01
2018-02-15T11:03:26.968Z,97745.70
2018-02-15T11:06:00.656Z,97742.34
2018-02-15T11:08:29.067Z,97743.67
2018-02-15T11:10:57.960Z,97735.20
2018-02-15T11:13:26.321Z,97738.97
2018-02-15T11:15:57.265Z,97746.88
2018-02-15T11:18:26.298Z,97742.98
2018-02-15T11:20:54.600Z,97744.64
2018-02-15T11:23:23.611Z,97737.95
2018-02-15T11:25:51.918Z,97741.81
2018-02-15T11:28:20.337Z,97745.25
2018-02-15T11:30:48.799Z,97744.66
2018-02-15T11:33:17.074Z,97747.06
2018-02-15T11:35:45.716Z,97738.76
2018-02-15T11:38:13.983Z,97744.95
2018-02-15T11:40:42.451Z,97745.95
2018-02-15T11:43:10.797Z,97744.42
2018-02-15T11:45:39.915Z,97746.14
2018-02-15T11:48:08.596Z,97753.02
2018-02-15T11:50:37.842Z,97758.28
2018-02-15T11:53:06.191Z,97748.73
2018-02-15T11:55:34.878Z,97758.66
2018-02-15T11:58:03.475Z,97759.36
2018-02-15T12:00:33.461Z,97758.77
2018-02-15T12:03:02.070Z,97771.33
2018-02-15T12:05:31.128Z,97753.25
2018-02-15T12:07:59.715Z,97751.06
2018-02-15T12:10:28.196Z,97754.12
2018-02-15T12:12:56.681Z,97753.81
2018-02-15T12:15:25.743Z,97758.66
2018-02-15T12:17:54.024Z,97759.45
2018-02-15T12:20:23.168Z,97759.27
2018-02-15T12:22:51.583Z,97756.09
2018-02-15T12:25:19.903Z,97760.31
2018-02-15T12:27:49.207Z,97756.73
2018-02-15T12:30:17.595Z,97751.83
2018-02-15T12:32:46.075Z,97750.16
2018-02-15T12:35:14.572Z,97747.20
2018-02-15T12:37:43.031Z,97756.16
2018-02-15T12:40:11.525Z,97758.23
2018-02-15T12:42:39.926Z,97753.45
2018-02-15T12:45:09.197Z,97754.02
2018-02-15T12:47:38.447Z,97750.66
2018-02-15T12:50:07.003Z,97749.39
2018-02-15T12:52:36.300Z,97745.73
2018-02-15T12:55:05.725Z,97748.34
2018-02-15T12:57:34.778Z,97748.17
2018-02-15T13:00:03.242Z,97747.34
2018-02-15T13:02:31.760Z,97747.20
2018-02-15T13:05:00.359Z,97745.02
2018-02-15T13:07:28.663Z,97747.42
2018-02-15T13:09:57.010Z,97745.48
2018-02-15T13:12:43.063Z,97746.59
2018-02-15T13:15:29.190Z,97749.70
2018-02-15T13:17:57.768Z,97754.70
2018-02-15T13:20:26.147Z,97752.19
2018-02-15T13:22:54.551Z,97752.30
2018-02-15T13:25:23.590Z,97757.22
2018-02-15T13:28:09.794Z,97761.64
2018-02-15T13:30:38.292Z,97753.80
2018-02-15T13:33:06.843Z,97762.86
2018-02-15T13:35:35.305Z,97756.26
2018-02-15T13:38:03.699Z,97756.66
2018-02-15T13:40:32.854Z,97760.02
2018-02-15T13:43:01.307Z,97763.28
2018-02-15T13:45:29.612Z,97756.70
2018-02-15T13:47:58.051Z,97764.08
2018-02-15T13:50:26.436Z,97762.23
2018-02-15T13:52:55.372Z,97765.97
2018-02-15T13:55:24.717Z,97765.97
2018-02-15T13:57:53.254Z,97777.42
2018-02-15T14:00:21.866Z,97772.66
2018-02-15T14:02:50.655Z,97770.83
2018-02-15T14:05:19.066Z,97777.08
2018-02-15T14:07:47.962Z,97776.95
2018-02-15T14:10:16.582Z,97770.31
2018-02-15T14:12:46.060Z,97782.20
2018-02-15T14:15:15.702Z,97773.63
2018-02-15T14:17:44.307Z,97774.66
2018-02-15T14:20:14.148Z,97774.61
2018-02-15T14:22:43.365Z,97770.06
2018-02-15T14:25:12.669Z,97768.12
2018-02-15T14:27:41.956Z,97770.69
2018-02-15T14:30:10.684Z,97775.92
2018-02-15T14:32:39.972Z,97778.43
2018-02-15T14:35:09.487Z,97783.44
2018-02-15T14:37:44.224Z,97778.89
2018-02-15T14:40:12.917Z,97784.38
2018-02-15T14:42:41.990Z,97788.95
2018-02-15T14:45:10.709Z,97800.50
2018-02-15T14:47:39.736Z,97798.34
2018-02-15T14:50:08.612Z,97801.41
2018-02-15T14:52:37.120Z,97810.30
2018-02-15T14:55:05.652Z,97823.22
2018-02-15T14:57:35.450Z,97816.19
2018-02-15T15:00:04.323Z,97824.20
2018-02-15T15:02:33.104Z,97822.70
2018-02-15T15:05:01.916Z,97829.45
2018-02-15T15:07:30.848Z,97827.83
2018-02-15T15:09:59.702Z,97828.84
2018-02-15T15:12:28.505Z,97830.68
2018-02-15T15:14:58.154Z,97830.84
2018-02-15T15:17:27.010Z,97832.50
2018-02-15T15:19:56.148Z,97827.36
2018-02-15T15:22:24.795Z,97834.06
2018-02-15T15:24:53.115Z,97833.75
2018-02-15T15:27:22.456Z,97834.23
2018-02-15T15:29:51.095Z,97829.06
2018-02-15T15:32:20.600Z,97825.24
2018-02-15T15:34:50.122Z,97826.88
2018-02-15T15:37:19.513Z,97834.36
2018-02-15T15:39:48.820Z,97835.37
2018-02-15T15:42:17.878Z,97831.84
2018-02-15T15:44:47.354Z,97836.87
2018-02-15T15:47:17.900Z,97825.73
2018-02-15T15:49:46.563Z,97827.94
2018-02-15T15:52:16.332Z,97824.61
2018-02-15T15:54:45.302Z,97827.23
2018-02-15T15:57:13.993Z,97830.17
2018-02-15T15:59:43.482Z,97837.38
2018-02-15T16:02:12.331Z,97836.17
2018-02-15T16:04:41.993Z,97836.47
2018-02-15T16:07:10.812Z,97837.06
2018-02-15T16:09:39.169Z,97837.55
2018-02-15T16:12:07.495Z,97837.05
2018-02-15T16:14:35.868Z,97846.58
2018-02-15T16:17:04.653Z,97846.89
2018-02-15T16:19:33.314Z,97846.56
2018-02-15T16:22:01.821Z,97851.90
2018-02-15T16:24:30.232Z,97854.23
2018-02-15T16:26:59.364Z,97856.77
2018-02-15T16:29:27.705Z,97852.71
2018-02-15T16:31:56.809Z,97858.80
2018-02-15T16:34:25.659Z,97859.30
2018-02-15T16:36:54.074Z,97861.52
2018-02-15T16:39:22.370Z,97856.91
2018-02-15T16:41:50.777Z,97850.95
2018-02-15T16:44:19.956Z,97850.16
2018-02-15T16:46:49.349Z,97849.06
2018-02-15T16:49:18.931Z,97851.43
2018-02-15T16:51:48.680Z,97863.42
2018-02-15T16:54:18.372Z,97865.62
2018-02-15T16:56:47.805Z,97868.28
2018-02-15T16:59:17.432Z,97875.28
2018-02-15T17:01:47.118Z,97874.53
2018-02-15T17:04:16.520Z,97872.01
2018-02-15T17:06:45.562Z,97868.30
2018-02-15T17:09:16.241Z,97880.70
2018-02-15T17:11:45.219Z,97877.29
2018-02-15T17:14:15.988Z,97881.42
2018-02-15T17:16:44.373Z,97882.57
2018-02-15T17:19:12.826Z,97896.51
2018-02-15T17:21:41.177Z,97884.23
2018-02-15T17:24:09.449Z,97884.89
2018-02-15T17:26:37.704Z,97881.17
2018-02-15T17:29:06.815Z,97880.25
2018-02-15T17:31:35.173Z,97874.56
2018-02-15T17:34:03.630Z,97874.56
2018-02-15T17:36:31.900Z,97879.98
2018-02-15T17:39:00.297Z,97878.59
2018-02-15T17:41:28.661Z,97871.50
2018-02-15T17:43:57.045Z,97874.19
2018-02-15T17:46:25.372Z,97877.78
2018-02-15T17:48:53.664Z,97885.25
2018-02-15T17:51:22.014Z,97880.37
2018-02-15T17:53:50.345Z,97886.56
2018-02-15T17:56:19.425Z,97885.38
2018-02-15T17:58:48.477Z,97890.17
2018-02-15T18:01:16.829Z,97894.15
2018-02-15T18:03:46.067Z,97889.45
2018-02-15T18:06:14.561Z,97900.83
2018-02-15T18:08:43.003Z,97891.66
2018-02-15T18:11:11.426Z,97893.33
2018-02-15T18:13:41.370Z,97897.95
2018-02-15T18:16:09.792Z,97890.56
2018-02-15T18:18:38.092Z,97893.75
2018-02-15T18:21:06.431Z,97894.73
2018-02-15T18:23:36.046Z,97897.91
2018-02-15T18:26:05.162Z,97897.51
2018-02-15T18:28:34.217Z,97896.16
2018-02-15T18:31:02.590Z,97897.75
2018-02-15T18:33:30.941Z,97909.88
2018-02-15T18:36:00.032Z,97910.86
2018-02-15T18:38:28.435Z,97913.45
2018-02-15T18:40:57.778Z,97913.96
2018-02-15T18:43:26.899Z,97921.14
2018-02-15T18:45:55.305Z,97929.16
2018-02-15T18:48:23.561Z,97921.85
2018-02-15T18:50:51.965Z,97925.02
2018-02-15T18:53:20.239Z,97916.20
2018-02-15T18:55:49.476Z,97927.69
2018-02-15T18:58:17.984Z,97919.98
2018-02-15T19:00:46.415Z,97932.67
2018-02-15T19:03:14.830Z,97925.35
2018-02-15T19:05:43.838Z,97920.51
2018-02-15T19:08:12.975Z,97922.45
2018-02-15T19:10:42.521Z,97929.47
2018-02-15T19:13:11.050Z,97925.10
2018-02-15T19:15:40.349Z,97923.23
2018-02-15T19:18:10.349Z,97932.03
2018-02-15T19:20:38.795Z,97924.95
2018-02-15T19:23:07.195Z,97930.54
2018-02-15T19:25:37.012Z,97928.66
2018-02-15T19:28:06.052Z,97924.89
2018-02-15T19:30:34.589Z,97927.05
2018-02-15T19:33:03.032Z,97934.34
2018-02-15T19:35:31.389Z,97932.26
2018-02-15T19:37:59.705Z,97925.36
2018-02-15T19:40:28.024Z,97921.92
2018-02-15T19:42:57.120Z,97920.93
2018-02-15T19:45:25.428Z,97921.38
2018-02-15T19:47:53.775Z,97927.06
2018-02-15T19:50:22.090Z,97923.59
2018-02-15T19:52:50.354Z,97917.02
2018-02-15T19:55:18.657Z,97922.21
2018-02-15T19:57:46.985Z,97919.39
2018-02-15T20:00:15.459Z,97915.41
2018-02-15T20:02:43.889Z,97916.25
2018-02-15T20:05:12.353Z,97915.13
2018-02-15T20:07:40.696Z,97914.08
2018-02-15T20:10:09.011Z,97910.34
2018-02-15T20:12:37.316Z,97913.17
2018-02-15T20:15:05.712Z,97918.25
2018-02-15T20:17:33.989Z,97926.05
2018-02-15T20:20:08.075Z,97924.11
2018-02-15T20:22:37.266Z,97927.77
2018-02-15T20:25:07.285Z,97923.82
2018-02-15T20:27:41.125Z,97926.04
2018-02-15T20:30:09.448Z,97916.31
2018-02-15T20:32:37.874Z,97919.98
2018-02-15T20:35:06.327Z,97909.23
2018-02-15T20:37:40.077Z,97915.39
2018-02-15T20:40:13.885Z,97911.56
2018-02-15T20:42:42.386Z,97912.06
2018-02-15T20:45:10.794Z,97915.44
2018-02-15T20:47:39.111Z,97907.80
2018-02-15T20:50:12.977Z,97917.23
2018-02-15T20:52:46.912Z,97918.91
2018-02-15T20:55:20.656Z,97926.80
2018-02-15T20:57:49.049Z,97930.56
2018-02-15T21:00:18.251Z,97941.02
2018-02-15T21:02:46.626Z,97941.31
2018-02-15T21:05:15.700Z,97948.41
2018-02-15T21:07:44.911Z,97959.05
2018-02-15T21:10:14.063Z,97968.69
2018-02-15T21:12:42.582Z,97965.47
2018-02-15T21:15:10.883Z,97972.56
2018-02-15T21:17:40.082Z,97972.86
2018-02-15T21:20:08.502Z,97971.63
2018-02-15T21:22:37.675Z,97963.81
2018-02-15T21:25:06.006Z,97967.09
2018-02-15T21:27:35.132Z,97972.27
2018-02-15T21:30:03.660Z,97965.16
2018-02-15T21:32:32.006Z,97962.52
2018-02-15T21:35:00.292Z,97970.64
2018-02-15T21:37:29.884Z,97975.70
2018-02-15T21:39:58.211Z,97974.68
2018-02-15T21:42:26.581Z,97978.23
2018-02-15T21:44:55.819Z,97974.27
2018-02-15T21:47:24.132Z,97982.59
2018-02-15T21:49:52.543Z,97986.27
2018-02-15T21:52:22.290Z,97994.58
2018-02-15T21:54:50.588Z,97995.80
2018-02-15T21:57:18.940Z,97998.81
2018-02-15T21:59:47.243Z,98005.41
2018-02-15T22:02:15.659Z,98007.16
2018-02-15T22:04:45.044Z,98012.45
2018-02-15T22:07:13.731Z,98011.53
2018-02-15T22:09:42.190Z,98030.30
2018-02-15T22:12:10.534Z,98016.32
2018-02-15T22:14:38.892Z,98024.64
2018-02-15T22:17:07.221Z,98036.80
2018-02-15T22:19:35.516Z,98036.30
2018-02-15T22:22:03.830Z,98033.05
2018-02-15T22:24:33.256Z,98037.02
2018-02-15T22:27:01.563Z,98050.91
2018-02-15T22:29:29.921Z,98057.20
2018-02-15T22:31:58.238Z,98063.59
2018-02-15T22:34:26.533Z,98065.66
2018-02-15T22:36:54.834Z,98071.62
2018-02-15T22:39:23.217Z,98067.05
2018-02-15T22:41:51.553Z,98065.13
2018-02-15T22:44:20.296Z,98072.05
2018-02-15T22:46:48.600Z,98071.02
2018-02-15T22:49:17.004Z,98070.39
2018-02-15T22:51:47.468Z,98070.00
2018-02-15T22:54:16.853Z,98069.28
2018-02-15T22:56:45.170Z,98071.79
2018-02-15T22:59:13.767Z,98079.52
2018-02-15T23:01:42.257Z,98082.34
2018-02-15T23:04:10.765Z,98082.05
2018-02-15T23:06:39.092Z,98086.80
2018-02-15T23:09:08.153Z,98088.20
2018-02-15T23:11:36.470Z,98081.14
2018-02-15T23:14:04.834Z,98085.41
2018-02-15T23:16:33.110Z,98085.38
2018-02-15T23:19:01.553Z,98092.38
2018-02-15T23:21:30.688Z,98094.20
2018-02-15T23:23:59.064Z,98106.06
2018-02-15T23:26:27.462Z,98102.52
2018-02-15T23:28:56.989Z,98110.92
2018-02-15T23:31:25.438Z,98120.06
2018-02-15T23:33:53.774Z,98119.25
2018-02-15T23:36:22.035Z,98118.43
2018-02-15T23:38:51.080Z,98126.11
2018-02-15T23:41:19.345Z,98128.47
2018-02-15T23:43:48.400Z,98130.39
2018-02-15T23:46:16.708Z,98138.70
2018-02-15T23:48:45.056Z,98147.93
2018-02-15T23:51:13.420Z,98153.39
2018-02-15T23:53:41.803Z,98167.79
2018-02-15T23:56:11.694Z,98166.97
2018-02-15T23:58:39.985Z,98172.42
